createdAt,value
2023-12-22T00:01:20.471Z,98827.78
2023-12-22T00:03:24.113Z,98810.47
2023-12-22T00:05:27.462Z,98823.47
2023-12-22T00:07:30.746Z,98829.66
2023-12-22T00:09:35.430Z,98830.03
2023-12-22T00:11:38.521Z,98837.13
2023-12-22T00:13:41.577Z,98850.63
2023-12-22T00:15:44.665Z,98848.41
2023-12-22T00:17:48.915Z,98845.84
2023-12-22T00:19:52.342Z,98846.03
2023-12-22T00:21:55.290Z,98840.22
2023-12-22T00:23:58.595Z,98852.50
2023-12-22T00:26:02.966Z,98844.97
2023-12-22T00:28:06.218Z,98859.28
2023-12-22T00:30:10.645Z,98855.41
2023-12-22T00:32:13.599Z,98856.44
2023-12-22T00:34:15.761Z,98861.81
2023-12-22T00:36:19.672Z,98861.56
2023-12-22T00:38:22.695Z,98870.31
2023-12-22T00:40:25.848Z,98877.22
2023-12-22T00:42:30.453Z,98877.50
2023-12-22T00:44:33.453Z,98882.91
2023-12-22T00:46:36.365Z,98886.53
2023-12-22T00:48:39.293Z,98895.16
2023-12-22T00:50:42.279Z,98891.75
2023-12-22T00:52:45.271Z,98900.13
2023-12-22T00:54:48.330Z,98885.97
2023-12-22T00:56:51.779Z,98890.03
2023-12-22T00:59:02.238Z,98887.00
2023-12-22T01:01:11.797Z,98898.03
2023-12-22T01:03:14.817Z,98885.31
2023-12-22T01:05:18.255Z,98881.00
2023-12-22T01:07:21.390Z,98883.34
2023-12-22T01:09:24.791Z,98878.00
2023-12-22T01:11:28.080Z,98882.16
2023-12-22T01:13:31.069Z,98885.38
2023-12-22T01:15:35.426Z,98892.28
2023-12-22T01:17:37.669Z,98905.19
2023-12-22T01:19:40.762Z,98910.56
2023-12-22T01:21:43.910Z,98914.53
2023-12-22T01:23:46.927Z,98916.13
2023-12-22T01:25:50.062Z,98907.88
2023-12-22T01:27:53.403Z,98900.63
2023-12-22T01:29:55.438Z,98918.81
2023-12-22T01:31:59.816Z,98918.47
2023-12-22T01:34:02.898Z,98910.66
2023-12-22T01:36:06.893Z,98912.31
2023-12-22T01:38:10.112Z,98916.47
2023-12-22T01:40:12.310Z,98931.03
2023-12-22T01:42:15.277Z,98921.19
2023-12-22T01:44:18.309Z,98935.63
2023-12-22T01:46:21.413Z,98937.75
2023-12-22T01:48:26.370Z,98949.94
2023-12-22T01:50:29.679Z,98937.56
2023-12-22T01:52:32.906Z,98946.91
2023-12-22T01:54:36.135Z,98939.41
2023-12-22T01:56:38.390Z,98944.69
2023-12-22T01:58:41.625Z,98939.91
2023-12-22T02:00:55.267Z,98939.91
2023-12-22T02:02:57.271Z,98944.47
2023-12-22T02:05:02.088Z,98934.91
2023-12-22T02:07:05.688Z,98954.31
2023-12-22T02:09:08.727Z,98940.78
2023-12-22T02:11:11.927Z,98927.41
2023-12-22T02:13:15.187Z,98930.41
2023-12-22T02:15:18.136Z,98925.44
2023-12-22T02:17:24.720Z,98936.34
2023-12-22T02:19:39.580Z,98927.97
2023-12-22T02:22:09.085Z,98919.53
2023-12-22T02:24:14.269Z,98921.66
2023-12-22T02:26:21.364Z,98908.66
2023-12-22T02:28:25.327Z,98910.88
2023-12-22T02:30:32.878Z,98921.03
2023-12-22T02:32:38.047Z,98921.22
2023-12-22T02:34:44.485Z,98936.38
2023-12-22T02:36:48.170Z,98950.75
2023-12-22T02:38:53.081Z,98937.28
2023-12-22T02:40:57.756Z,98936.56
2023-12-22T02:43:01.608Z,98945.59
2023-12-22T02:45:04.548Z,98949.91
2023-12-22T02:47:07.666Z,98948.19
2023-12-22T02:49:10.949Z,98948.94
2023-12-22T02:51:14.002Z,98937.75
2023-12-22T02:53:17.169Z,98940.94
2023-12-22T02:55:21.259Z,98942.66
2023-12-22T02:57:26.228Z,98941.25
2023-12-22T02:59:29.753Z,98933.69
2023-12-22T03:01:32.881Z,98947.59
2023-12-22T03:03:35.960Z,98934.34
2023-12-22T03:05:38.055Z,98950.22
2023-12-22T03:07:41.168Z,98973.72
2023-12-22T03:09:45.139Z,98959.22
2023-12-22T03:11:48.192Z,98958.31
2023-12-22T03:13:53.882Z,98961.16
2023-12-22T03:15:56.834Z,98949.63
2023-12-22T03:17:59.891Z,98959.56
2023-12-22T03:20:02.955Z,98947.59
2023-12-22T03:22:05.938Z,98951.44
2023-12-22T03:24:09.020Z,98944.13
2023-12-22T03:26:11.980Z,98943.59
2023-12-22T03:28:15.193Z,98949.63
2023-12-22T03:30:19.556Z,98954.81
2023-12-22T03:32:22.737Z,98943.00
2023-12-22T03:34:25.799Z,98949.63
2023-12-22T03:36:28.734Z,98964.06
2023-12-22T03:38:31.766Z,98954.38
2023-12-22T03:40:35.468Z,98956.56
2023-12-22T03:42:38.646Z,98956.56
2023-12-22T03:44:41.704Z,98973.38
2023-12-22T03:46:46.098Z,98967.88
2023-12-22T03:48:49.078Z,98960.38
2023-12-22T03:50:52.435Z,98957.22
2023-12-22T03:52:55.533Z,98958.88
2023-12-22T03:54:58.682Z,98956.84
2023-12-22T03:57:01.632Z,98956.16
2023-12-22T03:59:03.565Z,98969.50
2023-12-22T04:01:11.037Z,98965.53
2023-12-22T04:03:15.912Z,98956.53
2023-12-22T04:05:17.971Z,98964.16
2023-12-22T04:07:21.105Z,98960.78
2023-12-22T04:09:24.075Z,98982.19
2023-12-22T04:11:27.003Z,98999.00
2023-12-22T04:13:29.926Z,98988.44
2023-12-22T04:15:33.141Z,98998.66
2023-12-22T04:17:36.294Z,98970.13
2023-12-22T04:19:40.786Z,98968.75
2023-12-22T04:21:43.732Z,98971.50
2023-12-22T04:23:46.685Z,98974.31
2023-12-22T04:25:49.716Z,98969.50
2023-12-22T04:27:52.687Z,98967.09
2023-12-22T04:29:54.917Z,98975.34
2023-12-22T04:31:58.002Z,98980.16
2023-12-22T04:34:01.213Z,98991.22
2023-12-22T04:36:06.178Z,98984.78
2023-12-22T04:38:10.429Z,98980.59
2023-12-22T04:40:14.275Z,98994.34
2023-12-22T04:42:17.201Z,98999.00
2023-12-22T04:44:20.299Z,98995.75
2023-12-22T04:46:23.361Z,98993.84
2023-12-22T04:48:26.350Z,98989.34
2023-12-22T04:50:29.315Z,98994.09
2023-12-22T04:52:33.720Z,98992.41
2023-12-22T04:54:35.899Z,98993.25
2023-12-22T04:56:38.990Z,98978.44
2023-12-22T04:58:42.045Z,98982.53
2023-12-22T05:00:45.167Z,99012.22
2023-12-22T05:02:47.208Z,99007.31
2023-12-22T05:04:50.309Z,99006.63
2023-12-22T05:06:53.328Z,99012.75
2023-12-22T05:08:57.868Z,99012.41
2023-12-22T05:11:00.873Z,99008.16
2023-12-22T05:13:04.250Z,99011.75
2023-12-22T05:15:07.976Z,99013.00
2023-12-22T05:17:11.339Z,99010.47
2023-12-22T05:19:14.423Z,99007.41
2023-12-22T05:21:17.566Z,99012.72
2023-12-22T05:23:20.859Z,99012.00
2023-12-22T05:25:24.394Z,99022.94
2023-12-22T05:27:28.752Z,99027.66
2023-12-22T05:29:31.820Z,99020.53
2023-12-22T05:31:35.588Z,99032.59
2023-12-22T05:33:38.539Z,99025.72
2023-12-22T05:35:41.710Z,99031.75
2023-12-22T05:37:43.862Z,99025.06
2023-12-22T05:39:46.859Z,99020.38
2023-12-22T05:41:50.276Z,99020.91
2023-12-22T05:43:53.765Z,99021.41
2023-12-22T05:45:56.792Z,99024.97
2023-12-22T05:47:59.998Z,99033.19
2023-12-22T05:50:03.379Z,99044.50
2023-12-22T05:52:06.785Z,99046.09
2023-12-22T05:54:09.941Z,99049.25
2023-12-22T05:56:30.717Z,99047.88
2023-12-22T05:58:34.975Z,99045.56
2023-12-22T06:00:38.568Z,99051.28
2023-12-22T06:02:41.646Z,99062.50
2023-12-22T06:04:45.125Z,99064.81
2023-12-22T06:06:48.161Z,99072.84
2023-12-22T06:08:50.470Z,99069.88
2023-12-22T06:10:53.765Z,99067.00
2023-12-22T06:12:58.845Z,99052.16
2023-12-22T06:15:02.286Z,99059.16
2023-12-22T06:17:05.561Z,99064.22
2023-12-22T06:19:08.777Z,99074.09
2023-12-22T06:21:11.329Z,99080.50
2023-12-22T06:23:14.343Z,99070.16
2023-12-22T06:25:17.465Z,99074.19
2023-12-22T06:27:20.714Z,99078.34
2023-12-22T06:29:24.153Z,99076.94
2023-12-22T06:31:28.484Z,99073.69
2023-12-22T06:33:31.399Z,99076.81
2023-12-22T06:35:35.113Z,99075.16
2023-12-22T06:37:37.141Z,99080.59
2023-12-22T06:39:40.567Z,99082.69
2023-12-22T06:41:43.589Z,99083.72
2023-12-22T06:43:46.573Z,99080.16
2023-12-22T06:45:49.648Z,99080.75
2023-12-22T06:47:55.249Z,99073.59
2023-12-22T06:49:58.719Z,99069.13
2023-12-22T06:52:02.630Z,99079.56
2023-12-22T06:54:07.456Z,99079.88
2023-12-22T06:56:17.642Z,99096.78
2023-12-22T06:58:22.490Z,99079.19
2023-12-22T07:00:25.686Z,99074.56
2023-12-22T07:02:32.433Z,99079.88
2023-12-22T07:05:07.884Z,99084.91
2023-12-22T07:07:12.183Z,99077.16
2023-12-22T07:09:29.831Z,99080.47
2023-12-22T07:11:37.843Z,99053.63
2023-12-22T07:13:42.205Z,99071.41
2023-12-22T07:15:45.021Z,99074.81
2023-12-22T07:17:48.290Z,99085.09
2023-12-22T07:19:53.368Z,99070.38
2023-12-22T07:21:57.995Z,99056.53
2023-12-22T07:24:01.311Z,99026.97
2023-12-22T07:26:04.998Z,99054.91
2023-12-22T07:28:17.627Z,99084.28
2023-12-22T07:30:21.899Z,99077.78
2023-12-22T07:32:25.246Z,99075.47
2023-12-22T07:34:29.004Z,99079.16
2023-12-22T07:36:32.537Z,99074.19
2023-12-22T07:38:38.383Z,99077.78
2023-12-22T07:40:42.945Z,99070.22
2023-12-22T07:42:46.121Z,99083.56
2023-12-22T07:44:48.219Z,99068.03
2023-12-22T07:46:59.852Z,99074.50
2023-12-22T07:49:03.156Z,99083.56
2023-12-22T07:51:06.529Z,99073.34
2023-12-22T07:53:09.902Z,99058.94
2023-12-22T07:55:13.524Z,99050.19
2023-12-22T07:57:16.677Z,99044.97
2023-12-22T07:59:27.189Z,99058.22
2023-12-22T08:01:34.927Z,99054.09
2023-12-22T08:03:38.406Z,99054.59
2023-12-22T08:05:41.384Z,99043.06
2023-12-22T08:07:44.355Z,99040.19
2023-12-22T08:09:47.353Z,99041.09
2023-12-22T08:11:54.012Z,99043.28
2023-12-22T08:13:57.309Z,99050.75
2023-12-22T08:16:00.356Z,99052.75
2023-12-22T08:18:03.724Z,99040.22
2023-12-22T08:20:13.760Z,99027.06
2023-12-22T08:22:25.838Z,99044.81
2023-12-22T08:24:31.217Z,99037.72
2023-12-22T08:26:33.605Z,99041.75
2023-12-22T08:28:38.220Z,99037.03
2023-12-22T08:30:40.261Z,99026.13
2023-12-22T08:32:43.290Z,99022.09
2023-12-22T08:34:46.554Z,99023.59
2023-12-22T08:36:49.759Z,99031.28
2023-12-22T08:38:53.376Z,99032.09
2023-12-22T08:40:59.275Z,99015.19
2023-12-22T08:43:04.086Z,99008.19
2023-12-22T08:45:09.192Z,99017.94
2023-12-22T08:47:13.554Z,99021.88
2023-12-22T08:49:15.626Z,99039.41
2023-12-22T08:51:19.073Z,99051.28
2023-12-22T08:53:22.612Z,99043.94
2023-12-22T08:55:26.124Z,99029.81
2023-12-22T08:57:28.459Z,99065.97
2023-12-22T08:59:34.296Z,99067.69
2023-12-22T09:01:39.014Z,99077.50
2023-12-22T09:03:45.977Z,99075.50
2023-12-22T09:05:49.286Z,99070.91
2023-12-22T09:07:52.764Z,99071.84
2023-12-22T09:09:55.328Z,99066.28
2023-12-22T09:11:58.706Z,99056.38
2023-12-22T09:14:02.089Z,99050.31
2023-12-22T09:16:04.741Z,99045.94
2023-12-22T09:18:09.948Z,99047.91
2023-12-22T09:20:14.659Z,99036.19
2023-12-22T09:22:18.369Z,99050.59
2023-12-22T09:24:22.178Z,99048.78
2023-12-22T09:28:27.637Z,99026.25
2023-12-22T09:30:31.395Z,99028.47
2023-12-22T09:32:34.592Z,99037.16
2023-12-22T09:34:40.525Z,99043.84
2023-12-22T09:36:43.597Z,99049.41
2023-12-22T09:38:46.510Z,99046.31
2023-12-22T09:40:50.189Z,99042.00
2023-12-22T09:42:57.915Z,99057.09
2023-12-22T09:45:02.159Z,99042.22
2023-12-22T09:47:07.216Z,99033.97
2023-12-22T09:49:11.202Z,99066.00
2023-12-22T09:51:16.415Z,99067.13
2023-12-22T09:53:22.572Z,99062.16
2023-12-22T09:55:27.994Z,99041.31
2023-12-22T09:57:31.740Z,99029.81
2023-12-22T09:59:35.463Z,99019.34
2023-12-22T10:01:39.704Z,99013.41
2023-12-22T10:03:48.285Z,99013.97
2023-12-22T10:05:51.971Z,99026.63
2023-12-22T10:07:58.128Z,99037.34
2023-12-22T10:10:02.410Z,99041.50
2023-12-22T10:12:06.138Z,99039.63
2023-12-22T10:14:10.418Z,99022.94
2023-12-22T10:16:14.924Z,99023.38
2023-12-22T10:18:18.547Z,99013.63
2023-12-22T10:20:21.072Z,99007.28
2023-12-22T10:22:25.400Z,99000.97
2023-12-22T10:24:44.902Z,99013.19
2023-12-22T10:26:49.464Z,99007.59
2023-12-22T10:28:53.286Z,99016.91
2023-12-22T10:30:57.227Z,99005.50
2023-12-22T10:33:00.439Z,98989.53
2023-12-22T10:35:03.948Z,98986.63
2023-12-22T10:37:06.231Z,98979.63
2023-12-22T10:39:11.007Z,98973.06
2023-12-22T10:41:16.053Z,98976.91
2023-12-22T10:43:19.161Z,98978.09
2023-12-22T10:45:22.750Z,98984.22
2023-12-22T10:47:26.145Z,98971.50
2023-12-22T10:49:30.479Z,98974.28
2023-12-22T10:51:34.150Z,98984.09
2023-12-22T10:53:38.675Z,98984.63
2023-12-22T10:55:42.677Z,98983.28
2023-12-22T10:57:49.201Z,98971.50
2023-12-22T10:59:57.830Z,98976.41
2023-12-22T11:02:04.150Z,98960.72
2023-12-22T11:04:10.110Z,98972.78
2023-12-22T11:06:16.479Z,98969.00
2023-12-22T11:08:20.292Z,98967.31
2023-12-22T11:10:23.896Z,98963.81
2023-12-22T11:12:28.189Z,98969.06
2023-12-22T11:14:36.253Z,98965.91
2023-12-22T11:16:43.563Z,98957.03
2023-12-22T11:18:47.516Z,98959.63
2023-12-22T11:20:52.235Z,98970.44
2023-12-22T11:22:57.200Z,98970.69
2023-12-22T11:25:00.343Z,98967.34
2023-12-22T11:27:06.349Z,98966.41
2023-12-22T11:29:10.028Z,98962.16
2023-12-22T11:31:15.671Z,98955.81
2023-12-22T11:33:19.179Z,98949.41
2023-12-22T11:35:22.930Z,98955.41
2023-12-22T11:37:36.694Z,98950.69
2023-12-22T11:39:40.572Z,98961.81
2023-12-22T11:41:44.354Z,98968.81
2023-12-22T11:43:48.808Z,98973.78
2023-12-22T11:45:52.355Z,98976.94
2023-12-22T11:47:56.912Z,98973.53
2023-12-22T11:50:00.149Z,98958.44
2023-12-22T11:52:12.467Z,98958.03
2023-12-22T11:54:45.911Z,98970.41
2023-12-22T11:56:49.530Z,98965.19
2023-12-22T11:58:56.235Z,98950.63
2023-12-22T12:01:05.295Z,98934.47
2023-12-22T12:03:09.626Z,98934.31
2023-12-22T12:05:15.490Z,98942.19
2023-12-22T12:07:40.754Z,98930.66
2023-12-22T12:09:51.026Z,98925.28
2023-12-22T12:12:13.871Z,98927.94
2023-12-22T12:14:20.025Z,98934.34
2023-12-22T12:16:43.033Z,98932.97
2023-12-22T12:18:48.038Z,98943.63
2023-12-22T12:20:50.288Z,98950.47
2023-12-22T12:22:54.748Z,98938.69
2023-12-22T12:24:58.231Z,98936.13
2023-12-22T12:27:01.638Z,98938.28
2023-12-22T12:29:07.846Z,98946.00
2023-12-22T12:31:10.358Z,98947.25
2023-12-22T12:33:15.016Z,98943.56
2023-12-22T12:35:21.016Z,98922.97
2023-12-22T12:37:24.481Z,98923.03
2023-12-22T12:39:33.487Z,98921.56
2023-12-22T12:41:40.648Z,98930.81
2023-12-22T12:43:45.533Z,98920.69
2023-12-22T12:45:48.892Z,98920.03
2023-12-22T12:47:58.266Z,98910.19
2023-12-22T12:50:02.197Z,98919.06
2023-12-22T12:52:07.503Z,98924.78
2023-12-22T12:54:11.095Z,98909.75
2023-12-22T12:56:16.473Z,98916.75
2023-12-22T12:58:19.653Z,98927.94
2023-12-22T13:00:27.145Z,98927.50
2023-12-22T13:02:30.360Z,98925.41
2023-12-22T13:04:39.284Z,98913.34
2023-12-22T13:06:46.863Z,98919.28
2023-12-22T13:08:52.417Z,98914.22
2023-12-22T13:11:02.887Z,98913.59
2023-12-22T13:13:06.102Z,98918.75
2023-12-22T13:15:13.031Z,98904.72
2023-12-22T13:17:15.352Z,98907.13
2023-12-22T13:19:18.394Z,98917.28
2023-12-22T13:21:20.822Z,98909.56
2023-12-22T13:23:24.158Z,98926.91
2023-12-22T13:25:27.600Z,98910.19
2023-12-22T13:27:30.735Z,98914.00
2023-12-22T13:29:44.705Z,98891.16
2023-12-22T13:31:48.021Z,98907.13
2023-12-22T13:33:51.220Z,98896.53
2023-12-22T13:35:59.153Z,98888.22
2023-12-22T13:38:09.116Z,98890.53
2023-12-22T13:40:13.697Z,98904.28
2023-12-22T13:42:21.224Z,98909.53
2023-12-22T13:44:29.437Z,98901.97
2023-12-22T13:46:33.089Z,98905.75
2023-12-22T13:48:40.939Z,98897.50
2023-12-22T13:50:46.144Z,98901.00
2023-12-22T13:52:51.748Z,98905.63
2023-12-22T13:54:55.129Z,98906.38
2023-12-22T13:56:58.971Z,98888.41
2023-12-22T13:59:03.567Z,98895.69
2023-12-22T14:01:15.632Z,98887.88
2023-12-22T14:03:22.853Z,98891.75
2023-12-22T14:05:26.121Z,98882.66
2023-12-22T14:07:29.179Z,98866.38
2023-12-22T14:09:34.566Z,98884.88
2023-12-22T14:11:40.607Z,98876.09
2023-12-22T14:13:47.549Z,98868.41
2023-12-22T14:15:52.071Z,98901.94
2023-12-22T14:17:55.131Z,98867.47
2023-12-22T14:19:58.302Z,98898.97
2023-12-22T14:22:01.537Z,98932.50
2023-12-22T14:24:04.743Z,98922.97
2023-12-22T14:26:07.943Z,98908.72
2023-12-22T14:28:11.085Z,98897.72
2023-12-22T14:30:15.205Z,98897.69
2023-12-22T14:32:20.544Z,98898.78
2023-12-22T14:34:23.783Z,98891.16
2023-12-22T14:36:27.026Z,98904.06
2023-12-22T14:38:30.222Z,98890.66
2023-12-22T14:40:32.618Z,98894.72
2023-12-22T14:42:35.854Z,98889.38
2023-12-22T14:44:39.636Z,98894.88
2023-12-22T14:46:42.778Z,98908.44
2023-12-22T14:48:47.189Z,98914.00
2023-12-22T14:50:50.547Z,98904.28
2023-12-22T14:52:56.456Z,98916.09
2023-12-22T14:54:59.538Z,98910.81
2023-12-22T14:57:02.797Z,98914.31
2023-12-22T14:59:07.540Z,98933.06
2023-12-22T15:01:15.346Z,98932.06
2023-12-22T15:03:19.897Z,98922.03
2023-12-22T15:05:29.051Z,98915.28
2023-12-22T15:07:33.099Z,98938.19
2023-12-22T15:09:41.526Z,98935.13
2023-12-22T15:11:45.726Z,98932.84
2023-12-22T15:13:50.459Z,98923.59
2023-12-22T15:15:55.988Z,98925.94
2023-12-22T15:18:01.465Z,98930.91
2023-12-22T15:20:09.413Z,98922.66
2023-12-22T15:22:26.730Z,98924.78
2023-12-22T15:24:32.481Z,98937.69
2023-12-22T15:26:39.498Z,98947.50
2023-12-22T15:28:41.796Z,98947.44
2023-12-22T15:30:45.748Z,98940.88
2023-12-22T15:32:53.634Z,98936.53
2023-12-22T15:34:58.636Z,98950.28
2023-12-22T15:37:04.072Z,98948.47
2023-12-22T15:39:11.097Z,98949.97
2023-12-22T15:41:18.795Z,98962.97
2023-12-22T15:43:25.333Z,98971.66
2023-12-22T15:45:29.802Z,98966.03
2023-12-22T15:47:35.982Z,98975.53
2023-12-22T15:49:43.588Z,98960.13
2023-12-22T15:51:48.820Z,98948.16
2023-12-22T15:53:52.273Z,98962.00
2023-12-22T15:55:59.914Z,98934.72
2023-12-22T15:58:04.432Z,98945.53
2023-12-22T16:00:10.394Z,98927.84
2023-12-22T16:02:12.893Z,98944.78
2023-12-22T16:04:17.954Z,98932.09
2023-12-22T16:06:21.107Z,98950.91
2023-12-22T16:08:25.500Z,98948.69
2023-12-22T16:10:28.512Z,98955.56
2023-12-22T16:12:33.431Z,98964.13
2023-12-22T16:14:37.471Z,98955.44
2023-12-22T16:16:40.631Z,98971.22
2023-12-22T16:18:43.607Z,98965.59
2023-12-22T16:20:46.818Z,98976.41
2023-12-22T16:22:51.963Z,98963.06
2023-12-22T16:24:58.132Z,98970.28
2023-12-22T16:27:01.500Z,98961.38
2023-12-22T16:29:06.300Z,98968.16
2023-12-22T16:31:09.859Z,98956.59
2023-12-22T16:33:13.037Z,98970.28
2023-12-22T16:35:16.384Z,98973.66
2023-12-22T16:37:19.676Z,98968.78
2023-12-22T16:39:22.960Z,98972.19
2023-12-22T16:41:28.947Z,98961.91
2023-12-22T16:43:33.571Z,98981.06
2023-12-22T16:45:39.732Z,98975.53
2023-12-22T16:47:44.353Z,98980.84
2023-12-22T16:49:47.655Z,98979.28
2023-12-22T16:51:51.164Z,98979.16
2023-12-22T16:53:55.757Z,98989.72
2023-12-22T16:55:58.802Z,98996.91
2023-12-22T16:58:02.481Z,99001.06
2023-12-22T17:00:05.243Z,98985.28
2023-12-22T17:02:26.833Z,98988.13
2023-12-22T17:04:33.893Z,98983.38
2023-12-22T17:06:50.971Z,98977.88
2023-12-22T17:08:56.501Z,98986.13
2023-12-22T17:11:05.048Z,99000.31
2023-12-22T17:13:11.372Z,99005.19
2023-12-22T17:15:20.343Z,99004.66
2023-12-22T17:17:24.952Z,99018.09
2023-12-22T17:19:28.035Z,99008.56
2023-12-22T17:21:31.250Z,99031.84
2023-12-22T17:23:34.456Z,99048.56
2023-12-22T17:25:40.757Z,99063.69
2023-12-22T17:27:50.405Z,99078.28
2023-12-22T17:29:53.392Z,99080.88
2023-12-22T17:32:00.231Z,99072.03
2023-12-22T17:34:05.166Z,99085.50
2023-12-22T17:36:08.103Z,99104.50
2023-12-22T17:38:12.596Z,99104.28
2023-12-22T17:40:16.067Z,99113.38
2023-12-22T17:42:19.212Z,99117.75
2023-12-22T17:44:21.181Z,99106.69
2023-12-22T17:46:24.102Z,99116.47
2023-12-22T17:48:27.275Z,99102.72
2023-12-22T17:50:31.817Z,99101.19
2023-12-22T17:52:35.014Z,99110.13
2023-12-22T17:54:38.244Z,99114.50
2023-12-22T17:56:41.306Z,99119.06
2023-12-22T17:58:45.015Z,99119.44
2023-12-22T18:00:48.172Z,99105.28
2023-12-22T18:02:50.933Z,99114.31
2023-12-22T18:04:54.144Z,99114.81
2023-12-22T18:06:59.692Z,99095.47
2023-12-22T18:09:02.706Z,99107.44
2023-12-22T18:11:05.983Z,99102.06
2023-12-22T18:13:08.242Z,99105.91
2023-12-22T18:15:11.888Z,99101.50
2023-12-22T18:17:14.929Z,99106.03
2023-12-22T18:19:18.231Z,99105.25
2023-12-22T18:21:21.502Z,99114.97
2023-12-22T18:23:25.983Z,99120.81
2023-12-22T18:25:28.147Z,99105.16
2023-12-22T18:27:32.222Z,99098.97
2023-12-22T18:29:37.340Z,99108.72
2023-12-22T18:31:43.618Z,99112.75
2023-12-22T18:33:47.213Z,99117.44
2023-12-22T18:35:51.050Z,99102.72
2023-12-22T18:37:54.329Z,99118.56
2023-12-22T18:39:59.105Z,99114.09
2023-12-22T18:42:02.226Z,99133.19
2023-12-22T18:44:06.095Z,99129.59
2023-12-22T18:46:10.322Z,99145.94
2023-12-22T18:48:13.744Z,99148.94
2023-12-22T18:50:17.042Z,99170.81
2023-12-22T18:52:19.996Z,99169.88
2023-12-22T18:54:32.574Z,99168.66
2023-12-22T18:56:37.299Z,99164.19
2023-12-22T18:58:42.220Z,99161.38
2023-12-22T19:00:44.883Z,99161.13
2023-12-22T19:02:56.498Z,99160.84
2023-12-22T19:05:04.441Z,99170.84
2023-12-22T19:07:09.180Z,99169.31
2023-12-22T19:09:13.017Z,99171.00
2023-12-22T19:11:17.182Z,99172.78
2023-12-22T19:13:24.523Z,99183.25
2023-12-22T19:15:29.673Z,99174.59
2023-12-22T19:17:34.122Z,99179.72
2023-12-22T19:19:47.092Z,99181.31
2023-12-22T19:24:53.196Z,99189.25
2023-12-22T19:27:00.266Z,99202.16
2023-12-22T19:29:06.027Z,99206.13
2023-12-22T19:31:09.674Z,99217.59
2023-12-22T19:33:13.935Z,99224.19
2023-12-22T19:35:18.372Z,99224.50
2023-12-22T19:37:22.614Z,99237.44
2023-12-22T19:39:27.610Z,99234.97
2023-12-22T19:41:39.110Z,99239.91
2023-12-22T19:43:43.112Z,99226.59
2023-12-22T19:45:53.913Z,99236.69
2023-12-22T19:47:57.512Z,99228.66
2023-12-22T19:50:00.802Z,99218.47
2023-12-22T19:52:06.162Z,99220.34
2023-12-22T19:54:09.732Z,99221.94
2023-12-22T19:56:13.657Z,99235.38
2023-12-22T19:58:21.322Z,99239.69
2023-12-22T20:00:25.909Z,99247.78
2023-12-22T20:02:30.561Z,99243.66
2023-12-22T20:04:35.232Z,99266.13
2023-12-22T20:06:43.883Z,99263.94
2023-12-22T20:08:47.954Z,99279.75
2023-12-22T20:10:51.452Z,99274.59
2023-12-22T20:12:55.170Z,99281.84
2023-12-22T20:14:59.000Z,99270.63
2023-12-22T20:17:10.988Z,99283.84
2023-12-22T20:19:14.932Z,99286.78
2023-12-22T20:21:18.988Z,99284.34
2023-12-22T20:23:23.723Z,99291.59
2023-12-22T20:25:27.516Z,99291.72
2023-12-22T20:27:33.099Z,99289.22
2023-12-22T20:29:40.839Z,99289.78
2023-12-22T20:31:45.743Z,99294.03
2023-12-22T20:33:51.493Z,99306.63
2023-12-22T20:35:55.370Z,99322.47
2023-12-22T20:38:00.178Z,99313.69
2023-12-22T20:40:02.141Z,99313.59
2023-12-22T20:42:06.718Z,99320.03
2023-12-22T20:44:09.829Z,99324.59
2023-12-22T20:46:13.074Z,99309.13
2023-12-22T20:48:17.057Z,99326.59
2023-12-22T20:50:20.517Z,99336.28
2023-12-22T20:52:25.021Z,99344.69
2023-12-22T20:54:29.845Z,99343.19
2023-12-22T20:56:32.368Z,99350.44
2023-12-22T20:58:35.579Z,99348.75
2023-12-22T21:00:38.699Z,99362.50
2023-12-22T21:02:42.248Z,99339.75
2023-12-22T21:04:45.190Z,99351.22
2023-12-22T21:06:48.643Z,99348.50
2023-12-22T21:08:53.297Z,99357.09
2023-12-22T21:10:56.798Z,99362.03
2023-12-22T21:12:59.742Z,99373.09
2023-12-22T21:15:01.896Z,99373.31
2023-12-22T21:17:05.660Z,99362.84
2023-12-22T21:19:09.271Z,99369.03
2023-12-22T21:21:13.379Z,99358.75
2023-12-22T21:23:18.132Z,99364.34
2023-12-22T21:25:22.928Z,99374.91
2023-12-22T21:27:24.936Z,99384.97
2023-12-22T21:29:28.121Z,99391.78
2023-12-22T21:31:31.169Z,99388.69
2023-12-22T21:33:34.432Z,99392.38
2023-12-22T21:35:38.075Z,99396.28
2023-12-22T21:37:41.129Z,99406.56
2023-12-22T21:39:43.212Z,99416.19
2023-12-22T21:41:51.117Z,99415.94
2023-12-22T21:43:54.207Z,99403.19
2023-12-22T21:45:57.286Z,99427.63
2023-12-22T21:47:59.361Z,99432.31
2023-12-22T21:50:02.875Z,99440.97
2023-12-22T21:52:07.130Z,99451.09
2023-12-22T21:54:11.741Z,99446.41
2023-12-22T21:56:21.362Z,99453.84
2023-12-22T21:58:26.255Z,99451.19
2023-12-22T22:00:31.560Z,99448.09
2023-12-22T22:02:35.095Z,99465.97
2023-12-22T22:04:41.502Z,99463.69
2023-12-22T22:06:45.427Z,99462.34
2023-12-22T22:08:48.746Z,99471.38
2023-12-22T22:10:52.790Z,99478.47
2023-12-22T22:12:56.234Z,99467.72
2023-12-22T22:15:00.771Z,99478.63
2023-12-22T22:17:04.204Z,99494.38
2023-12-22T22:19:07.301Z,99491.50
2023-12-22T22:21:10.486Z,99488.78
2023-12-22T22:23:15.318Z,99494.06
2023-12-22T22:25:20.612Z,99502.41
2023-12-22T22:27:24.105Z,99508.72
2023-12-22T22:29:27.094Z,99511.78
2023-12-22T22:31:32.332Z,99502.84
2023-12-22T22:33:36.582Z,99515.25
2023-12-22T22:35:39.998Z,99515.66
2023-12-22T22:37:43.253Z,99524.16
2023-12-22T22:39:46.668Z,99531.84
2023-12-22T22:41:49.732Z,99524.47
2023-12-22T22:43:54.012Z,99543.63
2023-12-22T22:45:57.266Z,99547.66
2023-12-22T22:48:03.185Z,99545.56
2023-12-22T22:50:09.146Z,99545.41
2023-12-22T22:52:12.921Z,99541.75
2023-12-22T22:54:16.686Z,99546.22
2023-12-22T22:56:19.955Z,99551.00
2023-12-22T22:58:23.693Z,99561.06
2023-12-22T23:00:33.716Z,99568.59
2023-12-22T23:02:40.695Z,99568.13
2023-12-22T23:04:47.719Z,99573.63
2023-12-22T23:06:50.804Z,99565.25
2023-12-22T23:08:53.997Z,99563.41
2023-12-22T23:10:57.784Z,99560.41
2023-12-22T23:13:07.074Z,99567.22
2023-12-22T23:15:10.327Z,99566.72
2023-12-22T23:17:13.918Z,99577.88
2023-12-22T23:19:16.980Z,99573.38
2023-12-22T23:21:21.368Z,99570.81
2023-12-22T23:23:25.954Z,99557.84
2023-12-22T23:25:32.678Z,99562.66
2023-12-22T23:27:37.360Z,99559.94
2023-12-22T23:29:43.010Z,99565.16
2023-12-22T23:31:46.946Z,99578.06
2023-12-22T23:33:53.058Z,99577.47
2023-12-22T23:35:58.916Z,99585.94
2023-12-22T23:38:09.399Z,99581.44
2023-12-22T23:40:13.866Z,99585.03
2023-12-22T23:42:19.495Z,99578.94
2023-12-22T23:44:23.293Z,99586.50
2023-12-22T23:46:27.251Z,99580.69
2023-12-22T23:48:31.147Z,99574.72
2023-12-22T23:50:37.529Z,99589.59
2023-12-22T23:52:46.413Z,99597.44
2023-12-22T23:54:55.335Z,99615.59
2023-12-22T23:56:59.822Z,99604.25
2023-12-22T23:59:08.953Z,99603.25
